Time;durP1;ratioP1;P1;durP2;ratioP2;P2;SDS_P1;SDS_P2;PMS_P1;PMS_P2;Temp;Humidity;BMP_temperature;BMP_pressure;BME280_temperature;BME280_humidity;BME280_pressure;Samples;Min_cycle;Max_cycle;Signal;HPM_P1;HPM_P2
2023/04/17 00:02:09;;;;;;;1.63;1.10;;;3.90;99.90;;;;;;5044589;28;20061;-36
2023/04/17 00:04:39;;;;;;;1.23;1.10;;;3.90;99.90;;;;;;5044425;28;20057;-37
2023/04/17 00:07:08;;;;;;;0.80;0.80;;;4.00;99.90;;;;;;5045172;28;20056;-37
2023/04/17 00:09:36;;;;;;;1.40;1.30;;;4.00;99.90;;;;;;5045592;28;20057;-36
2023/04/17 00:12:03;;;;;;;1.30;1.20;;;3.90;99.90;;;;;;5044233;28;20414;-37
2023/04/17 00:14:31;;;;;;;1.30;1.20;;;3.60;99.90;;;;;;5044301;28;20051;-37
2023/04/17 00:16:58;;;;;;;1.27;1.25;;;3.60;99.90;;;;;;5044706;28;20059;-37
2023/04/17 00:19:26;;;;;;;1.45;1.35;;;3.60;99.90;;;;;;5043341;28;20037;-37
2023/04/17 00:21:53;;;;;;;1.17;1.17;;;3.50;99.90;;;;;;5044930;28;20449;-37
2023/04/17 00:24:21;;;;;;;1.13;1.02;;;3.50;99.90;;;;;;5044739;28;20053;-37
2023/04/17 00:26:48;;;;;;;1.00;1.00;;;3.50;99.90;;;;;;5043394;28;20059;-37
2023/04/17 00:29:15;;;;;;;1.45;1.35;;;3.50;99.90;;;;;;5041475;28;20053;-37
2023/04/17 00:31:43;;;;;;;9.73;1.13;;;3.40;99.90;;;;;;5044292;28;20055;-37
2023/04/17 00:34:11;;;;;;;1.05;1.05;;;3.50;99.90;;;;;;5043641;28;20473;-37
2023/04/17 00:36:38;;;;;;;1.20;1.10;;;3.60;99.90;;;;;;5043108;28;20421;-37
2023/04/17 00:39:05;;;;;;;3.20;1.25;;;3.60;99.90;;;;;;5044018;28;20083;-37
2023/04/17 00:41:33;;;;;;;1.15;1.15;;;3.60;99.90;;;;;;5044764;28;20052;-37
2023/04/17 00:44:01;;;;;;;1.33;1.23;;;3.60;99.90;;;;;;5043730;28;20728;-38
2023/04/17 00:46:29;;;;;;;1.38;1.27;;;3.60;99.90;;;;;;5044412;28;20059;-37
2023/04/17 00:48:57;;;;;;;3.38;3.08;;;3.70;99.90;;;;;;5043639;28;20422;-38
2023/04/17 00:51:24;;;;;;;1.10;1.10;;;3.60;99.90;;;;;;5043533;28;20544;-37
2023/04/17 00:53:52;;;;;;;1.13;1.13;;;3.70;99.90;;;;;;5043515;28;20501;-39
2023/04/17 00:56:20;;;;;;;0.90;0.90;;;3.80;99.90;;;;;;5044542;28;20057;-36
2023/04/17 00:58:49;;;;;;;1.00;1.00;;;3.80;99.90;;;;;;5044333;28;20044;-38
2023/04/17 01:01:16;;;;;;;1.33;1.23;;;3.80;99.90;;;;;;5044330;28;20080;-36
2023/04/17 01:03:44;;;;;;;1.10;1.10;;;3.80;99.90;;;;;;5043486;28;20067;-49
2023/04/17 01:06:12;;;;;;;1.45;1.40;;;3.70;99.90;;;;;;5043368;28;20527;-49
2023/04/17 01:08:43;;;;;;;1.05;1.05;;;3.70;99.90;;;;;;5059556;28;20049;-49
2023/04/17 01:11:11;;;;;;;1.17;1.17;;;3.70;99.90;;;;;;5060628;28;20433;-49
2023/04/17 01:13:48;;;;;;;1.35;1.10;;;3.80;99.90;;;;;;5063561;28;20517;-48
2023/04/17 01:16:18;;;;;;;1.50;1.40;;;3.80;99.90;;;;;;5047842;28;20055;-48
2023/04/17 01:18:47;;;;;;;1.00;1.00;;;3.90;99.90;;;;;;5047073;28;20051;-49
2023/04/17 01:21:15;;;;;;;1.63;1.52;;;3.90;99.90;;;;;;5045577;28;20052;-49
2023/04/17 01:23:44;;;;;;;1.10;1.10;;;3.80;99.90;;;;;;5048119;28;20060;-37
2023/04/17 01:26:18;;;;;;;1.77;1.10;;;3.80;99.90;;;;;;5045777;28;20289;-36
2023/04/17 01:28:59;;;;;;;1.58;1.48;;;3.80;99.90;;;;;;5048513;28;20242;-36
2023/04/17 01:31:28;;;;;;;1.13;1.13;;;3.80;99.90;;;;;;5045874;28;20437;-37
2023/04/17 01:33:55;;;;;;;1.30;1.30;;;3.80;99.90;;;;;;5047207;28;20056;-37
2023/04/17 01:36:23;;;;;;;1.40;1.30;;;3.90;99.90;;;;;;5047081;28;20075;-37
2023/04/17 01:38:51;;;;;;;1.50;1.40;;;3.90;99.90;;;;;;5047688;28;20063;-38
2023/04/17 01:41:19;;;;;;;1.35;1.30;;;4.00;99.90;;;;;;5047303;28;20541;-37
2023/04/17 01:43:46;;;;;;;1.67;1.58;;;3.90;99.90;;;;;;5062476;28;20421;-38
2023/04/17 01:46:14;;;;;;;1.00;1.00;;;4.00;99.90;;;;;;5047718;28;20092;-37
2023/04/17 01:48:42;;;;;;;1.20;1.20;;;3.90;99.90;;;;;;5046248;28;20068;-36
2023/04/17 01:51:09;;;;;;;2.25;1.63;;;3.90;99.90;;;;;;5046661;28;20056;-36
2023/04/17 01:53:38;;;;;;;1.58;1.48;;;3.80;99.90;;;;;;5048746;28;20037;-38
2023/04/17 01:56:06;;;;;;;1.70;1.60;;;3.80;99.90;;;;;;5047194;28;20045;-37
2023/04/17 01:58:34;;;;;;;1.52;1.42;;;3.80;99.90;;;;;;5047153;28;20052;-37
2023/04/17 02:01:02;;;;;;;1.75;1.60;;;3.80;99.90;;;;;;5045433;28;20067;-36
2023/04/17 02:03:30;;;;;;;3.58;3.38;;;3.90;99.90;;;;;;5045631;28;20053;-37
2023/04/17 02:05:58;;;;;;;1.75;1.65;;;3.90;99.90;;;;;;5046439;28;20075;-37
2023/04/17 02:08:26;;;;;;;0.95;0.95;;;3.90;99.90;;;;;;5027112;28;20057;-36
2023/04/17 02:10:53;;;;;;;1.60;1.60;;;3.90;99.90;;;;;;5026680;28;20053;-37
2023/04/17 02:13:21;;;;;;;1.40;1.30;;;3.80;99.90;;;;;;5027676;28;20053;-37
2023/04/17 02:15:48;;;;;;;4.40;1.58;;;3.80;99.90;;;;;;5025784;28;20100;-35
2023/04/17 02:18:16;;;;;;;2.08;1.98;;;3.70;99.90;;;;;;5022678;28;20049;-35
2023/04/17 02:20:43;;;;;;;4.07;3.65;;;3.70;99.90;;;;;;5026144;28;20477;-34
2023/04/17 02:23:11;;;;;;;2.25;2.05;;;3.70;99.90;;;;;;5058497;28;20068;-34
2023/04/17 02:25:38;;;;;;;2.75;2.17;;;3.80;99.90;;;;;;5027927;28;20057;-35
2023/04/17 02:28:06;;;;;;;2.40;2.20;;;3.80;99.90;;;;;;5030336;28;20068;-35
2023/04/17 02:30:34;;;;;;;2.55;2.03;;;3.80;99.90;;;;;;5026348;28;20510;-34
2023/04/17 02:33:01;;;;;;;2.20;2.00;;;3.80;99.90;;;;;;5028736;28;20053;-35
2023/04/17 02:35:31;;;;;;;2.55;2.20;;;3.90;99.90;;;;;;5024417;28;20064;-34
2023/04/17 02:37:59;;;;;;;2.47;2.30;;;3.90;99.90;;;;;;5026809;28;20061;-35
2023/04/17 02:40:27;;;;;;;2.83;2.50;;;3.90;99.90;;;;;;5023460;28;20793;-35
2023/04/17 02:43:01;;;;;;;2.42;2.22;;;3.90;99.90;;;;;;5033699;28;20052;-35
2023/04/17 02:45:29;;;;;;;2.50;2.30;;;3.90;99.90;;;;;;5061754;28;20383;-35
2023/04/17 02:47:57;;;;;;;2.47;2.28;;;4.00;99.90;;;;;;5031220;28;20446;-35
2023/04/17 02:50:26;;;;;;;3.38;2.30;;;4.00;99.90;;;;;;5023596;28;20053;-35
2023/04/17 02:53:05;;;;;;;2.17;2.08;;;4.00;99.90;;;;;;5025629;28;20524;-35
2023/04/17 02:55:33;;;;;;;3.25;3.05;;;4.10;99.90;;;;;;5027191;28;20171;-35
2023/04/17 02:58:00;;;;;;;3.17;2.88;;;4.10;99.90;;;;;;5026797;28;20072;-35
2023/04/17 03:00:28;;;;;;;3.58;3.28;;;4.10;99.90;;;;;;5060693;28;20052;-35
2023/04/17 03:02:55;;;;;;;3.65;2.90;;;4.10;99.90;;;;;;5045771;28;20505;-35
2023/04/17 03:05:23;;;;;;;4.80;3.78;;;4.10;99.90;;;;;;5043993;28;20049;-35
2023/04/17 03:07:53;;;;;;;2.80;2.33;;;4.20;99.90;;;;;;5061277;28;20060;-35
2023/04/17 03:10:21;;;;;;;3.75;3.30;;;4.10;99.90;;;;;;5045442;28;20056;-35
2023/04/17 03:12:48;;;;;;;4.35;3.03;;;4.00;99.90;;;;;;5061711;28;20076;-35
2023/04/17 03:15:16;;;;;;;6.88;4.93;;;4.00;99.90;;;;;;5044011;28;20044;-36
2023/04/17 03:17:44;;;;;;;43.67;6.28;;;3.90;99.90;;;;;;5045798;28;20455;-35
2023/04/17 03:20:11;;;;;;;22.00;5.88;;;3.90;99.90;;;;;;5043653;28;20460;-35
2023/04/17 03:22:39;;;;;;;58.53;7.53;;;3.80;99.90;;;;;;5046196;28;20631;-36
2023/04/17 03:25:08;;;;;;;48.88;7.65;;;3.80;99.90;;;;;;5046353;28;20382;-35
2023/04/17 03:27:45;;;;;;;42.42;7.53;;;3.70;99.90;;;;;;5046747;28;20045;-35
2023/04/17 03:30:14;;;;;;;42.15;7.97;;;3.70;99.90;;;;;;5043772;28;20060;-35
2023/04/17 03:32:46;;;;;;;40.95;10.13;;;3.60;99.90;;;;;;5038862;28;20532;-35
2023/04/17 03:35:13;;;;;;;46.97;7.47;;;3.60;99.90;;;;;;5044422;28;20127;-35
2023/04/17 03:37:42;;;;;;;36.97;6.13;;;3.60;99.90;;;;;;5044322;28;20053;-35
2023/04/17 03:40:11;;;;;;;29.88;4.95;;;3.70;99.90;;;;;;5043718;28;20052;-35
2023/04/17 03:42:38;;;;;;;12.93;7.13;;;3.70;99.90;;;;;;5045109;28;20045;-35
2023/04/17 03:45:06;;;;;;;9.68;6.15;;;3.80;99.90;;;;;;5059921;28;20053;-36
2023/04/17 03:47:34;;;;;;;16.63;8.70;;;3.80;99.90;;;;;;5045504;28;20058;-35
2023/04/17 03:50:02;;;;;;;35.95;8.07;;;3.80;99.90;;;;;;5059346;28;20481;-35
2023/04/17 03:52:35;;;;;;;25.15;5.68;;;3.80;99.90;;;;;;5044139;28;20049;-35
2023/04/17 03:55:05;;;;;;;44.80;8.13;;;3.80;99.90;;;;;;5060343;28;20505;-36
2023/04/17 03:57:32;;;;;;;39.53;7.10;;;3.80;99.90;;;;;;5060956;28;20068;-35
2023/04/17 04:00:01;;;;;;;35.33;8.50;;;3.80;99.90;;;;;;5059464;28;20053;-36
2023/04/17 04:02:45;;;;;;;28.20;10.27;;;3.80;99.90;;;;;;5044893;28;20040;-35
2023/04/17 04:05:16;;;;;;;32.78;8.07;;;3.90;99.90;;;;;;5059015;28;20424;-35
2023/04/17 04:07:44;;;;;;;20.58;6.13;;;3.90;99.90;;;;;;5043113;28;20052;-35
2023/04/17 04:10:17;;;;;;;43.28;6.82;;;3.90;99.90;;;;;;5043225;28;20424;-35
2023/04/17 04:12:45;;;;;;;22.90;6.57;;;3.90;99.90;;;;;;5060654;28;20493;-35
2023/04/17 04:15:14;;;;;;;34.20;7.72;;;3.90;99.90;;;;;;5043140;28;20536;-35
2023/04/17 04:17:43;;;;;;;11.55;6.00;;;3.90;99.90;;;;;;5060260;28;20063;-35
2023/04/17 04:20:11;;;;;;;18.48;7.18;;;3.90;99.90;;;;;;5041886;28;20426;-35
2023/04/17 04:22:40;;;;;;;16.67;7.45;;;4.00;99.90;;;;;;5042650;28;20525;-35
2023/04/17 04:25:08;;;;;;;12.13;6.18;;;4.00;99.90;;;;;;5039513;28;20049;-35
2023/04/17 04:27:50;;;;;;;15.20;8.38;;;4.00;99.90;;;;;;5045389;28;20040;-35
2023/04/17 04:30:26;;;;;;;29.77;7.93;;;4.10;99.90;;;;;;5042044;28;20044;-34
2023/04/17 04:33:04;;;;;;;9.35;6.93;;;4.20;99.90;;;;;;5043241;28;20064;-35
2023/04/17 04:35:33;;;;;;;13.32;8.38;;;4.20;99.90;;;;;;5041397;28;20049;-35
2023/04/17 04:38:00;;;;;;;10.07;6.50;;;4.30;99.90;;;;;;5037951;28;20069;-35
2023/04/17 04:40:35;;;;;;;11.15;8.85;;;4.30;99.90;;;;;;5041818;28;20049;-35
2023/04/17 04:43:03;;;;;;;11.15;6.15;;;4.30;99.90;;;;;;5041769;28;20055;-35
2023/04/17 04:45:37;;;;;;;9.63;5.80;;;4.30;99.90;;;;;;5040033;28;20409;-35
2023/04/17 04:48:04;;;;;;;9.18;6.20;;;4.30;99.90;;;;;;5059532;28;20045;-35
2023/04/17 04:50:32;;;;;;;10.32;5.28;;;4.40;99.90;;;;;;5040323;28;20045;-35
2023/04/17 04:52:59;;;;;;;11.73;5.68;;;4.40;99.90;;;;;;5043779;28;20057;-35
2023/04/17 04:55:45;;;;;;;11.02;6.53;;;4.50;99.90;;;;;;5042028;28;20041;-35
2023/04/17 04:58:13;;;;;;;11.52;6.85;;;4.50;99.90;;;;;;5042586;28;20049;-35
2023/04/17 05:00:42;;;;;;;9.85;5.13;;;4.50;99.90;;;;;;5058728;28;20057;-35
2023/04/17 05:03:14;;;;;;;12.13;7.90;;;4.60;99.90;;;;;;5041960;28;20045;-35
2023/04/17 05:05:43;;;;;;;11.55;6.68;;;4.50;99.90;;;;;;5057596;28;20068;-35
2023/04/17 05:08:14;;;;;;;8.98;5.18;;;4.50;99.90;;;;;;5059012;28;20068;-35
2023/04/17 05:10:46;;;;;;;9.40;5.93;;;4.50;99.90;;;;;;5058910;28;20055;-34
2023/04/17 05:13:14;;;;;;;13.20;7.57;;;4.50;99.90;;;;;;5043781;28;20095;-35
2023/04/17 05:15:42;;;;;;;9.98;6.72;;;4.50;99.90;;;;;;5058651;28;20462;-35
2023/04/17 05:18:09;;;;;;;9.23;6.50;;;4.50;99.90;;;;;;5043009;28;20088;-35
2023/04/17 05:20:38;;;;;;;8.73;5.07;;;4.60;99.90;;;;;;5034096;28;20057;-35
2023/04/17 05:23:05;;;;;;;8.90;6.13;;;4.60;99.90;;;;;;5042407;28;20048;-35
2023/04/17 05:25:33;;;;;;;10.20;7.80;;;4.60;99.90;;;;;;5043861;28;20084;-35
2023/04/17 05:28:03;;;;;;;7.70;5.43;;;4.50;99.90;;;;;;5041824;28;20052;-35
2023/04/17 05:30:32;;;;;;;9.10;6.53;;;4.50;99.90;;;;;;5058333;28;20037;-34
2023/04/17 05:33:11;;;;;;;12.27;8.02;;;4.50;99.90;;;;;;5039728;28;20049;-35
2023/04/17 05:35:47;;;;;;;11.00;6.55;;;4.50;99.90;;;;;;5040747;28;20422;-35
2023/04/17 05:38:15;;;;;;;10.35;5.00;;;4.60;99.90;;;;;;5026148;28;20076;-34
2023/04/17 05:40:44;;;;;;;12.98;7.25;;;4.60;99.90;;;;;;5038129;28;20084;-35
2023/04/17 05:43:11;;;;;;;16.00;8.02;;;4.70;99.90;;;;;;5042607;28;20045;-35
2023/04/17 05:45:42;;;;;;;16.15;6.95;;;4.70;99.90;;;;;;5059242;28;20045;-35
2023/04/17 05:48:10;;;;;;;19.52;7.13;;;4.70;99.90;;;;;;5043701;28;20514;-35
2023/04/17 05:50:37;;;;;;;12.13;5.78;;;4.70;99.90;;;;;;5042243;28;20453;-35
2023/04/17 05:53:06;;;;;;;13.80;7.43;;;4.70;99.90;;;;;;5043672;28;20502;-35
2023/04/17 05:55:38;;;;;;;12.88;7.95;;;4.70;99.90;;;;;;5042267;28;20509;-35
2023/04/17 05:58:10;;;;;;;16.08;8.43;;;4.70;99.90;;;;;;5029609;28;20060;-35
2023/04/17 06:00:52;;;;;;;17.17;9.40;;;4.70;99.90;;;;;;5045464;28;20053;-35
2023/04/17 06:03:20;;;;;;;12.95;7.60;;;4.70;99.90;;;;;;5045899;28;20052;-36
2023/04/17 06:05:53;;;;;;;16.88;9.43;;;4.80;99.90;;;;;;5045108;28;20394;-35
2023/04/17 06:08:21;;;;;;;19.30;9.32;;;4.80;99.90;;;;;;5047221;28;20048;-35
2023/04/17 06:10:50;;;;;;;15.60;6.85;;;4.80;99.90;;;;;;5041665;28;20569;-35
2023/04/17 06:13:18;;;;;;;16.45;9.77;;;4.90;99.90;;;;;;5033163;28;20073;-35
2023/04/17 06:15:50;;;;;;;14.90;7.97;;;4.90;99.90;;;;;;5042894;28;20063;-36
2023/04/17 06:18:18;;;;;;;20.80;8.98;;;4.90;99.90;;;;;;5059050;28;20468;-35
2023/04/17 06:20:46;;;;;;;22.48;9.52;;;5.00;99.90;;;;;;5045121;28;20057;-39
2023/04/17 06:23:13;;;;;;;13.32;8.38;;;5.10;99.90;;;;;;5046410;28;20409;-35
2023/04/17 06:25:42;;;;;;;16.88;7.10;;;5.10;99.90;;;;;;5045975;28;20048;-35
2023/04/17 06:28:09;;;;;;;21.77;9.52;;;5.00;99.90;;;;;;5041161;28;20042;-35
2023/04/17 06:30:37;;;;;;;15.73;8.27;;;5.00;99.90;;;;;;5041028;28;20048;-35
2023/04/17 06:33:06;;;;;;;24.33;11.13;;;4.90;99.90;;;;;;5036834;28;20049;-35
2023/04/17 06:35:36;;;;;;;21.10;9.90;;;4.90;99.90;;;;;;5043617;28;20056;-35
2023/04/17 06:38:36;;;;;;;20.08;10.77;;;5.00;99.90;;;;;;5036143;28;20041;-35
2023/04/17 06:41:04;;;;;;;19.58;9.48;;;5.00;99.90;;;;;;5051029;28;20060;-35
2023/04/17 06:43:31;;;;;;;20.70;8.57;;;5.00;99.90;;;;;;5039792;28;20793;-35
2023/04/17 06:46:10;;;;;;;26.92;10.18;;;5.00;99.90;;;;;;5036465;28;20519;-35
2023/04/17 06:48:37;;;;;;;24.33;11.98;;;5.00;99.90;;;;;;5046515;28;20068;-35
2023/04/17 06:51:06;;;;;;;18.83;8.85;;;5.00;99.90;;;;;;5049711;28;20518;-34
2023/04/17 06:53:33;;;;;;;16.38;8.73;;;5.00;99.90;;;;;;5038948;28;20046;-35
2023/04/17 06:56:01;;;;;;;20.50;10.27;;;5.00;99.90;;;;;;5042798;28;20387;-35
2023/04/17 06:58:28;;;;;;;17.25;9.98;;;5.10;99.90;;;;;;5040969;28;20111;-35
2023/04/17 07:00:56;;;;;;;21.90;9.18;;;5.10;99.90;;;;;;5044821;28;20549;-35
2023/04/17 07:03:23;;;;;;;21.98;10.00;;;5.20;99.90;;;;;;5037711;28;20041;-35
2023/04/17 07:05:51;;;;;;;20.63;11.43;;;5.20;99.90;;;;;;5041612;28;20059;-36
2023/04/17 07:08:21;;;;;;;27.00;13.90;;;5.20;99.90;;;;;;5038668;28;20041;-35
2023/04/17 07:10:49;;;;;;;20.15;9.65;;;5.20;99.90;;;;;;5041912;28;20060;-34
2023/04/17 07:13:16;;;;;;;19.25;9.57;;;5.20;99.90;;;;;;5044450;28;20061;-35
2023/04/17 07:15:44;;;;;;;23.58;10.55;;;5.10;99.90;;;;;;5038935;28;20249;-35
2023/04/17 07:18:11;;;;;;;22.08;9.73;;;5.10;99.90;;;;;;5041824;28;20045;-35
2023/04/17 07:20:39;;;;;;;21.45;10.70;;;5.10;99.90;;;;;;5040048;28;20045;-35
2023/04/17 07:23:06;;;;;;;25.63;11.15;;;5.10;99.90;;;;;;5042075;28;20051;-35
2023/04/17 07:25:34;;;;;;;19.90;8.23;;;5.10;99.90;;;;;;5028143;28;20048;-35
2023/04/17 07:28:01;;;;;;;22.83;9.98;;;5.20;99.90;;;;;;5038041;28;20045;-35
2023/04/17 07:30:31;;;;;;;25.77;8.38;;;5.20;99.90;;;;;;5041063;28;20068;-34
2023/04/17 07:32:59;;;;;;;24.10;10.98;;;5.20;99.90;;;;;;5040899;28;20056;-35
2023/04/17 07:35:27;;;;;;;24.95;9.15;;;5.30;99.90;;;;;;5040862;28;20044;-35
2023/04/17 07:37:56;;;;;;;24.58;8.55;;;5.40;99.90;;;;;;5042488;28;20057;-35
2023/04/17 07:40:24;;;;;;;18.35;9.77;;;5.40;99.90;;;;;;5041030;28;20545;-35
2023/04/17 07:42:52;;;;;;;32.70;11.52;;;5.30;99.90;;;;;;5041346;28;20112;-34
2023/04/17 07:45:20;;;;;;;21.58;9.10;;;5.30;99.90;;;;;;5043061;28;20075;-35
2023/04/17 07:47:50;;;;;;;24.23;10.02;;;5.40;99.90;;;;;;5042154;28;20052;-35
2023/04/17 07:50:18;;;;;;;20.60;9.00;;;5.40;99.90;;;;;;5040837;28;20317;-35
2023/04/17 07:52:45;;;;;;;29.33;11.15;;;5.50;99.90;;;;;;5042144;28;20064;-35
2023/04/17 07:55:14;;;;;;;18.70;7.07;;;5.50;99.90;;;;;;5042166;28;20045;-35
2023/04/17 07:57:42;;;;;;;22.00;8.75;;;5.50;99.90;;;;;;5042520;28;20049;-35
2023/04/17 08:00:12;;;;;;;18.50;9.18;;;5.40;99.90;;;;;;5041650;28;20053;-35
2023/04/17 08:02:42;;;;;;;19.73;11.20;;;5.40;99.90;;;;;;5041777;28;20044;-35
2023/04/17 08:05:10;;;;;;;17.48;8.52;;;5.40;99.90;;;;;;5034692;28;20061;-36
2023/04/17 08:07:39;;;;;;;16.90;9.07;;;5.40;99.90;;;;;;5047196;28;20048;-35
2023/04/17 08:10:06;;;;;;;30.42;12.68;;;5.40;99.90;;;;;;5042457;28;20053;-35
2023/04/17 08:12:34;;;;;;;27.40;10.88;;;5.50;99.90;;;;;;5041916;28;20051;-36
2023/04/17 08:15:02;;;;;;;32.05;12.23;;;5.50;99.90;;;;;;5040410;28;20492;-35
2023/04/17 08:17:29;;;;;;;23.92;9.35;;;5.50;99.90;;;;;;5041573;28;20375;-36
2023/04/17 08:19:57;;;;;;;21.40;10.95;;;5.60;99.90;;;;;;5039717;28;20044;-35
2023/04/17 08:22:27;;;;;;;20.63;9.32;;;5.70;99.90;;;;;;5041059;28;20045;-35
2023/04/17 08:24:58;;;;;;;17.35;7.57;;;5.70;99.90;;;;;;5041535;28;20296;-34
2023/04/17 08:27:26;;;;;;;12.07;8.05;;;5.80;99.90;;;;;;5041297;28;20056;-34
2023/04/17 08:29:53;;;;;;;17.48;8.75;;;5.80;99.90;;;;;;5041863;28;20527;-34
2023/04/17 08:32:21;;;;;;;24.10;8.68;;;5.80;99.90;;;;;;5027412;28;20111;-35
2023/04/17 08:34:48;;;;;;;16.17;6.90;;;5.90;99.90;;;;;;5039624;28;20044;-35
2023/04/17 08:37:16;;;;;;;16.27;8.40;;;5.90;99.90;;;;;;5041454;28;20423;-35
2023/04/17 08:39:44;;;;;;;20.08;7.47;;;5.90;99.90;;;;;;5041185;28;20390;-35
2023/04/17 08:42:13;;;;;;;23.15;9.95;;;5.90;99.90;;;;;;5041557;28;20053;-35
2023/04/17 08:44:45;;;;;;;21.05;8.63;;;6.00;99.90;;;;;;5041276;28;20470;-35
2023/04/17 08:47:16;;;;;;;20.98;9.07;;;6.10;99.90;;;;;;5040787;28;20060;-35
2023/04/17 08:49:44;;;;;;;25.05;9.40;;;6.10;99.90;;;;;;5040699;28;20075;-35
2023/04/17 08:52:13;;;;;;;23.73;10.10;;;6.20;99.90;;;;;;5039387;28;20053;-35
2023/04/17 08:54:41;;;;;;;16.25;7.88;;;6.20;99.90;;;;;;5041621;28;20037;-35
2023/04/17 08:57:08;;;;;;;23.08;9.25;;;6.20;99.90;;;;;;5041491;28;20045;-35
2023/04/17 08:59:36;;;;;;;17.60;7.88;;;6.30;99.90;;;;;;5039995;28;20061;-36
2023/04/17 09:02:05;;;;;;;20.27;10.10;;;6.30;99.90;;;;;;5039200;28;20068;-35
2023/04/17 09:04:36;;;;;;;18.65;9.73;;;6.40;99.90;;;;;;5040989;28;20052;-35
2023/04/17 09:07:05;;;;;;;17.55;8.90;;;6.50;99.90;;;;;;5040713;28;20048;-35
2023/04/17 09:09:55;;;;;;;16.65;10.70;;;6.60;99.90;;;;;;5041254;28;20060;-35
2023/04/17 09:12:24;;;;;;;18.60;10.23;;;6.60;99.90;;;;;;5041077;28;20049;-35
2023/04/17 09:14:52;;;;;;;20.92;9.77;;;6.60;99.90;;;;;;5040845;28;20037;-35
2023/04/17 09:17:20;;;;;;;20.83;10.90;;;6.50;99.90;;;;;;5042068;28;20060;-34
2023/04/17 09:20:06;;;;;;;17.90;10.48;;;6.40;99.90;;;;;;5036562;28;20068;-35
2023/04/17 09:22:39;;;;;;;24.40;11.73;;;6.60;99.90;;;;;;5040673;28;20045;-35
2023/04/17 09:25:16;;;;;;;18.50;9.25;;;6.60;99.90;;;;;;5041355;28;20053;-35
2023/04/17 09:27:44;;;;;;;15.75;8.27;;;6.60;99.90;;;;;;5040850;28;20049;-36
2023/04/17 09:30:12;;;;;;;16.80;10.05;;;6.60;99.90;;;;;;5040097;28;20053;-35
2023/04/17 09:32:40;;;;;;;13.35;8.32;;;6.70;99.90;;;;;;5044470;28;20056;-35
2023/04/17 09:35:08;;;;;;;14.43;7.68;;;6.70;99.90;;;;;;5042678;28;20091;-35
2023/04/17 09:37:50;;;;;;;19.50;10.55;;;6.90;99.90;;;;;;5045260;28;20072;-35
2023/04/17 09:40:20;;;;;;;13.15;7.93;;;7.00;99.90;;;;;;5043976;28;20087;-35
2023/04/17 09:42:56;;;;;;;16.00;7.97;;;7.10;99.90;;;;;;5044330;28;20056;-35
2023/04/17 09:45:25;;;;;;;14.13;8.60;;;7.10;99.90;;;;;;5043524;28;20053;-35
2023/04/17 09:47:57;;;;;;;16.58;9.75;;;7.00;99.90;;;;;;5040982;28;20037;-35
2023/04/17 09:50:25;;;;;;;20.08;9.38;;;7.10;99.90;;;;;;5045220;28;20052;-35
2023/04/17 09:52:57;;;;;;;12.95;9.02;;;7.30;99.90;;;;;;5045096;28;20520;-35
2023/04/17 09:55:28;;;;;;;12.68;8.63;;;7.30;99.90;;;;;;5044091;28;20049;-35
2023/04/17 09:57:58;;;;;;;19.00;10.57;;;7.20;99.90;;;;;;5043924;28;20049;-35
2023/04/17 10:00:26;;;;;;;20.45;11.07;;;7.20;99.90;;;;;;5043868;28;20057;-34
2023/04/17 10:02:56;;;;;;;16.85;9.77;;;7.20;99.90;;;;;;5044202;28;20052;-35
2023/04/17 10:05:31;;;;;;;15.68;11.77;;;7.00;99.90;;;;;;5044393;28;20639;-35
2023/04/17 10:07:59;;;;;;;18.38;9.70;;;7.10;99.90;;;;;;5049816;28;20053;-35
2023/04/17 10:10:30;;;;;;;15.00;9.75;;;7.10;99.90;;;;;;5044042;28;20044;-35
2023/04/17 10:13:04;;;;;;;19.45;10.63;;;7.00;99.90;;;;;;5032180;28;20072;-35
2023/04/17 10:15:32;;;;;;;17.50;10.70;;;7.10;99.90;;;;;;5044069;28;20049;-35
2023/04/17 10:18:23;;;;;;;20.45;11.30;;;7.10;99.90;;;;;;5044417;28;20048;-35
2023/04/17 10:20:54;;;;;;;18.30;11.00;;;7.10;99.90;;;;;;5032886;28;20709;-35
2023/04/17 10:23:30;;;;;;;21.67;12.25;;;7.10;99.90;;;;;;5044707;28;20630;-35
2023/04/17 10:26:23;;;;;;;13.95;9.30;;;7.20;99.90;;;;;;5040767;28;20410;-37
2023/04/17 10:28:52;;;;;;;20.20;12.18;;;7.20;99.90;;;;;;5041657;28;20204;-35
2023/04/17 10:31:22;;;;;;;26.58;14.00;;;7.40;99.90;;;;;;5043470;28;20064;-36
2023/04/17 10:33:53;;;;;;;21.42;12.73;;;7.50;99.90;;;;;;5043875;28;20065;-35
2023/04/17 10:36:47;;;;;;;;;;;7.70;99.90;;;;;;5048025;28;20037;-34
2023/04/17 10:39:17;;;;;;;14.85;9.60;;;7.90;99.90;;;;;;5041934;28;20237;-35
2023/04/17 10:42:03;;;;;;;19.95;12.00;;;8.20;99.90;;;;;;5040462;28;20049;-35
2023/04/17 10:44:38;;;;;;;14.60;9.95;;;8.40;99.90;;;;;;5041762;28;20052;-35
2023/04/17 10:47:07;;;;;;;17.25;10.23;;;8.60;99.90;;;;;;5040498;28;20059;-35
2023/04/17 10:49:49;;;;;;;15.50;10.32;;;8.90;99.90;;;;;;5043045;28;20409;-34
2023/04/17 10:52:44;;;;;;;16.83;11.13;;;9.00;99.90;;;;;;5043621;28;20485;-34
2023/04/17 10:55:19;;;;;;;18.77;12.05;;;9.00;99.90;;;;;;5042477;28;20140;-35
2023/04/17 10:58:01;;;;;;;15.77;10.90;;;9.10;99.90;;;;;;5042768;28;20131;-35
2023/04/17 11:00:30;;;;;;;;;;;9.20;99.90;;;;;;5042151;28;20380;-35
2023/04/17 11:03:00;;;;;;;19.45;12.30;;;9.10;99.90;;;;;;5042829;28;20018;-34
2023/04/17 11:05:30;;;;;;;18.25;13.18;;;8.50;99.90;;;;;;5039416;28;20056;-35
2023/04/17 11:07:58;;;;;;;17.80;11.02;;;8.20;99.90;;;;;;5043065;28;20049;-35
2023/04/17 11:10:26;;;;;;;21.50;13.43;;;8.20;99.90;;;;;;5042841;28;20049;-35
2023/04/17 11:12:55;;;;;;;16.13;10.43;;;8.30;99.90;;;;;;5042397;28;20048;-35
2023/04/17 11:15:33;;;;;;;15.63;10.57;;;8.50;99.90;;;;;;5042392;28;20068;-35
2023/04/17 11:18:01;;;;;;;17.15;12.88;;;8.70;99.90;;;;;;5035601;28;20048;-35
2023/04/17 11:20:31;;;;;;;19.02;11.55;;;8.80;99.90;;;;;;5042538;28;20052;-36
2023/04/17 11:23:04;;;;;;;17.30;10.98;;;8.80;99.90;;;;;;5042955;28;20045;-35
2023/04/17 11:25:32;;;;;;;20.15;12.50;;;8.70;99.90;;;;;;5043611;28;20045;-35
2023/04/17 11:28:04;;;;;;;19.17;11.55;;;8.80;99.90;;;;;;5042486;28;20048;-35
2023/04/17 11:30:43;;;;;;;18.42;11.68;;;8.80;99.90;;;;;;5041863;28;20455;-36
2023/04/17 11:33:11;;;;;;;20.20;14.07;;;8.60;99.90;;;;;;5041958;28;20065;-35
2023/04/17 11:35:40;;;;;;;20.40;11.40;;;8.70;99.90;;;;;;5040079;28;20052;-36
2023/04/17 11:38:22;;;;;;;15.57;10.27;;;8.90;99.90;;;;;;5041928;28;20739;-35
2023/04/17 11:40:53;;;;;;;16.02;11.38;;;9.30;99.90;;;;;;5041129;28;20048;-35
2023/04/17 11:43:22;;;;;;;20.52;12.45;;;9.50;99.90;;;;;;5041910;28;20049;-35
2023/04/17 11:45:55;;;;;;;16.95;11.82;;;9.60;99.90;;;;;;5043068;28;20123;-35
2023/04/17 11:48:26;;;;;;;17.60;12.50;;;9.70;99.90;;;;;;5041238;28;20056;-36
2023/04/17 11:50:56;;;;;;;18.60;12.25;;;9.90;99.90;;;;;;5040515;28;20049;-35
2023/04/17 11:53:24;;;;;;;18.50;11.85;;;10.20;99.90;;;;;;5042798;28;20076;-35
2023/04/17 11:56:11;;;;;;;20.42;11.73;;;10.30;99.90;;;;;;5041042;28;20059;-35
2023/04/17 11:58:47;;;;;;;17.33;12.00;;;10.70;99.90;;;;;;5041640;28;20421;-35
2023/04/17 12:01:15;;;;;;;17.38;11.82;;;11.20;99.90;;;;;;5041617;28;20048;-35
2023/04/17 12:03:43;;;;;;;16.27;11.85;;;11.50;99.90;;;;;;5041962;28;20052;-36
2023/04/17 12:06:14;;;;;;;17.38;10.10;;;11.50;99.90;;;;;;5036354;28;20057;-35
2023/04/17 12:08:53;;;;;;;15.45;10.45;;;11.30;99.90;;;;;;5042628;28;20067;-35
2023/04/17 12:11:34;;;;;;;18.05;12.68;;;10.60;99.90;;;;;;5041524;28;20056;-35
2023/04/17 12:14:04;;;;;;;19.15;12.82;;;10.20;99.90;;;;;;5037855;28;20048;-35
2023/04/17 12:16:31;;;;;;;17.33;11.70;;;10.20;99.90;;;;;;5041188;28;20060;-35
2023/04/17 12:18:59;;;;;;;17.63;12.30;;;10.30;99.90;;;;;;5032071;28;20052;-35
2023/04/17 12:21:27;;;;;;;18.95;13.30;;;10.50;99.90;;;;;;5040103;28;20049;-36
2023/04/17 12:23:54;;;;;;;15.52;11.20;;;10.40;99.90;;;;;;5035685;28;20041;-35
2023/04/17 12:26:24;;;;;;;13.73;11.75;;;10.50;99.90;;;;;;5041770;28;20049;-35
2023/04/17 12:28:51;;;;;;;15.70;11.27;;;10.50;99.90;;;;;;5041989;28;20056;-36
2023/04/17 12:31:19;;;;;;;16.45;10.82;;;10.60;99.90;;;;;;5040646;28;20057;-36
2023/04/17 12:33:46;;;;;;;18.25;13.65;;;10.80;99.90;;;;;;5040715;28;20068;-36
2023/04/17 12:36:14;;;;;;;15.70;9.98;;;11.10;99.90;;;;;;5039508;28;20049;-35
2023/04/17 12:38:42;;;;;;;11.88;9.85;;;11.60;99.90;;;;;;5040385;28;20044;-35
2023/04/17 12:41:09;;;;;;;12.32;10.40;;;12.00;99.90;;;;;;5041483;28;20063;-35
2023/04/17 12:43:37;;;;;;;13.20;9.43;;;12.20;99.90;;;;;;5040680;28;20045;-36
2023/04/17 12:46:04;;;;;;;15.45;11.18;;;12.10;99.90;;;;;;5041245;28;20095;-35
2023/04/17 12:48:32;;;;;;;14.60;8.70;;;12.00;99.90;;;;;;5041679;28;20398;-35
2023/04/17 12:51:00;;;;;;;11.10;8.55;;;12.10;99.90;;;;;;5040001;28;20041;-36
2023/04/17 12:53:28;;;;;;;27.00;20.85;;;12.30;99.90;;;;;;5039890;28;20053;-35
2023/04/17 12:55:56;;;;;;;17.55;13.50;;;12.50;99.90;;;;;;5041254;28;20463;-36
2023/04/17 12:58:24;;;;;;;11.18;9.95;;;12.70;99.90;;;;;;5040984;28;20053;-35
2023/04/17 13:00:51;;;;;;;14.45;11.15;;;12.60;99.90;;;;;;5038695;28;20453;-36